Time;durP1;ratioP1;P1;durP2;ratioP2;P2;SDS_P1;SDS_P2;PMS_P1;PMS_P2;Temp;Humidity;BMP_temperature;BMP_pressure;BME280_temperature;BME280_humidity;BME280_pressure;Samples;Min_cycle;Max_cycle;Signal;HPM_P1;HPM_P2
2022/11/14 00:01:08;;;;;;;1999.90;999.90;;;3.20;99.90;;;;;;4989201;28;20454;-72
2022/11/14 00:03:35;;;;;;;1999.90;999.90;;;3.20;99.90;;;;;;4989538;28;20470;-73
2022/11/14 00:06:05;;;;;;;1999.90;999.90;;;3.20;99.90;;;;;;4989320;28;20930;-72
2022/11/14 00:08:32;;;;;;;1999.90;999.90;;;3.20;99.90;;;;;;4989439;28;20485;-71
2022/11/14 00:10:59;;;;;;;1999.90;999.90;;;3.10;99.90;;;;;;4989681;28;20494;-73
2022/11/14 00:13:26;;;;;;;1999.90;999.90;;;3.10;99.90;;;;;;4989822;28;20493;-72
2022/11/14 00:15:53;;;;;;;1999.90;999.90;;;3.10;99.90;;;;;;4990072;28;20477;-71
2022/11/14 00:18:22;;;;;;;1999.90;999.90;;;3.10;99.90;;;;;;4989724;28;20451;-73
2022/11/14 00:20:50;;;;;;;1999.90;999.90;;;3.20;99.90;;;;;;4990152;28;20442;-71
2022/11/14 00:23:17;;;;;;;1999.90;999.90;;;3.10;99.90;;;;;;4989558;28;20473;-72
2022/11/14 00:25:44;;;;;;;1999.90;999.90;;;3.10;99.90;;;;;;4990275;28;20457;-71
2022/11/14 00:28:10;;;;;;;1999.90;999.90;;;3.10;99.90;;;;;;4989722;28;20443;-72
2022/11/14 00:30:37;;;;;;;1999.90;999.90;;;3.10;99.90;;;;;;4989765;28;20450;-71
2022/11/14 00:33:04;;;;;;;1999.90;999.90;;;3.00;99.90;;;;;;4989418;28;20467;-73
2022/11/14 00:35:32;;;;;;;1999.90;999.90;;;3.00;99.90;;;;;;4990928;28;20458;-71
2022/11/14 00:37:59;;;;;;;1999.90;999.90;;;3.00;99.90;;;;;;4993763;28;20987;-71
2022/11/14 00:40:26;;;;;;;1999.90;999.90;;;3.00;99.90;;;;;;4993112;28;20446;-73
2022/11/14 00:42:53;;;;;;;1999.90;999.90;;;3.00;99.90;;;;;;4993322;28;20451;-71
2022/11/14 00:45:20;;;;;;;1999.90;999.90;;;2.90;99.90;;;;;;4993129;28;20450;-72
2022/11/14 00:47:46;;;;;;;1999.90;999.90;;;2.90;99.90;;;;;;4993243;28;20447;-72
2022/11/14 00:50:13;;;;;;;1999.90;999.90;;;2.90;99.90;;;;;;4993476;28;20450;-71
2022/11/14 00:52:41;;;;;;;1999.90;999.90;;;2.90;99.90;;;;;;4992283;28;20489;-72
2022/11/14 00:55:09;;;;;;;1999.90;999.90;;;2.90;99.90;;;;;;4993239;28;20851;-71
2022/11/14 00:57:35;;;;;;;1999.90;999.90;;;2.80;99.90;;;;;;4992684;28;20458;-70
2022/11/14 01:00:03;;;;;;;1999.90;999.90;;;2.70;99.90;;;;;;4992841;28;20929;-71
2022/11/14 01:02:30;;;;;;;1999.90;999.90;;;2.70;99.90;;;;;;4992324;28;20486;-73
2022/11/14 01:04:57;;;;;;;1999.90;999.90;;;2.70;99.90;;;;;;4992985;28;20466;-73
2022/11/14 01:07:23;;;;;;;1999.90;999.90;;;2.80;99.90;;;;;;4993304;28;20541;-71
2022/11/14 01:09:51;;;;;;;1999.90;999.90;;;2.80;99.90;;;;;;4992474;28;20961;-72
2022/11/14 01:12:18;;;;;;;1999.90;999.90;;;2.90;99.90;;;;;;4992635;28;20570;-72
2022/11/14 01:14:45;;;;;;;1999.90;999.90;;;2.90;99.90;;;;;;4992166;28;20470;-71
2022/11/14 01:17:12;;;;;;;1999.90;999.90;;;2.80;99.90;;;;;;4992957;28;20454;-72
2022/11/14 01:19:39;;;;;;;1999.90;999.90;;;2.70;99.90;;;;;;4992942;28;20447;-72
2022/11/14 01:22:06;;;;;;;1999.90;999.90;;;2.70;99.90;;;;;;4992948;28;20455;-71
2022/11/14 01:24:32;;;;;;;1999.90;999.90;;;2.70;99.90;;;;;;4993143;28;20467;-71
2022/11/14 01:27:01;;;;;;;1999.90;999.90;;;2.60;99.90;;;;;;4992607;28;20447;-73
2022/11/14 01:29:28;;;;;;;1999.90;999.90;;;2.60;99.90;;;;;;4992879;28;20545;-72
2022/11/14 01:31:55;;;;;;;1999.90;999.90;;;2.60;99.90;;;;;;4992287;28;20570;-71
2022/11/14 01:34:22;;;;;;;1999.90;999.90;;;2.60;99.90;;;;;;4992718;28;20481;-71
2022/11/14 01:36:49;;;;;;;1999.90;999.90;;;2.60;99.90;;;;;;4992467;28;20451;-71
2022/11/14 01:39:16;;;;;;;1999.90;999.90;;;2.40;99.90;;;;;;4992614;28;20455;-72
2022/11/14 01:41:42;;;;;;;1999.90;999.90;;;2.40;99.90;;;;;;4992094;28;20835;-71
2022/11/14 01:44:16;;;;;;;1999.90;999.90;;;2.50;99.90;;;;;;4991700;28;21180;-70
2022/11/14 01:46:47;;;;;;;1999.90;999.90;;;2.40;99.90;;;;;;4992274;28;20442;-70
2022/11/14 01:49:18;;;;;;;1999.90;999.90;;;2.30;99.90;;;;;;4992106;28;20490;-70
2022/11/14 01:51:49;;;;;;;1999.90;999.90;;;2.30;99.90;;;;;;4992684;28;20467;-70
2022/11/14 01:54:20;;;;;;;1999.90;999.90;;;2.20;99.90;;;;;;4991678;28;20474;-71
2022/11/14 01:56:52;;;;;;;1999.90;999.90;;;2.20;99.90;;;;;;4992541;28;20453;-72
2022/11/14 01:59:24;;;;;;;1999.90;999.90;;;2.30;99.90;;;;;;4992306;28;20828;-70
2022/11/14 02:01:57;;;;;;;1999.90;999.90;;;2.30;99.90;;;;;;4991380;28;20453;-71
2022/11/14 02:04:28;;;;;;;1999.90;999.90;;;2.20;99.90;;;;;;4991988;28;20471;-70
2022/11/14 02:06:58;;;;;;;1999.90;999.90;;;2.20;99.90;;;;;;4991125;28;20485;-73
2022/11/14 02:09:26;;;;;;;1999.90;999.90;;;2.20;99.90;;;;;;4992010;28;20451;-71
2022/11/14 02:11:54;;;;;;;1999.90;999.90;;;2.20;99.90;;;;;;4991318;28;20486;-73
2022/11/14 02:14:22;;;;;;;1999.90;999.90;;;2.30;99.90;;;;;;4991577;28;20474;-71
2022/11/14 02:16:49;;;;;;;1999.90;999.90;;;2.20;99.90;;;;;;4991896;28;20454;-71
2022/11/14 02:19:17;;;;;;;1999.90;999.90;;;2.20;99.90;;;;;;4991004;28;20446;-70
2022/11/14 02:21:45;;;;;;;1999.90;999.90;;;2.20;99.90;;;;;;4991600;28;20442;-71
2022/11/14 02:24:13;;;;;;;1999.90;999.90;;;2.10;99.90;;;;;;4991115;28;20471;-71
2022/11/14 02:26:42;;;;;;;1999.90;999.90;;;2.00;99.90;;;;;;4991492;28;20461;-71
2022/11/14 02:29:11;;;;;;;1999.90;999.90;;;2.00;99.90;;;;;;4991071;28;20991;-70
2022/11/14 02:31:38;;;;;;;1999.90;999.90;;;1.90;99.90;;;;;;4990960;28;20486;-72
2022/11/14 02:34:05;;;;;;;1999.90;999.90;;;2.00;99.90;;;;;;4990806;28;20467;-74
2022/11/14 02:36:32;;;;;;;1999.90;999.90;;;1.90;99.90;;;;;;4991133;28;20457;-74
2022/11/14 02:39:00;;;;;;;1999.90;999.90;;;1.90;99.90;;;;;;4991285;28;20450;-70
2022/11/14 02:41:27;;;;;;;1999.90;999.90;;;1.90;99.90;;;;;;4990437;28;21004;-70
2022/11/14 02:43:53;;;;;;;1999.90;999.90;;;1.80;99.90;;;;;;4990993;28;20462;-71
2022/11/14 02:46:20;;;;;;;1999.90;999.90;;;1.90;99.90;;;;;;4990639;28;20457;-73
2022/11/14 02:48:47;;;;;;;1999.90;999.90;;;1.90;99.90;;;;;;4991143;28;20459;-72
2022/11/14 02:51:14;;;;;;;1999.90;999.90;;;2.00;99.90;;;;;;4990805;28;20525;-72
2022/11/14 02:53:40;;;;;;;1999.90;999.90;;;2.10;99.90;;;;;;4990359;28;20497;-73
2022/11/14 02:56:09;;;;;;;1999.90;999.90;;;2.10;99.90;;;;;;4990916;28;20840;-71
2022/11/14 02:58:35;;;;;;;1999.90;999.90;;;2.00;99.90;;;;;;4989922;28;20837;-71
2022/11/14 03:01:02;;;;;;;1999.90;999.90;;;1.90;99.90;;;;;;4990573;28;20841;-71
2022/11/14 03:03:29;;;;;;;1999.90;999.90;;;1.80;99.90;;;;;;4990169;28;20841;-72
2022/11/14 03:05:59;;;;;;;1999.90;999.90;;;1.90;99.90;;;;;;4991094;28;21044;-71
2022/11/14 03:08:26;;;;;;;1999.90;999.90;;;1.90;99.90;;;;;;4990506;28;20983;-75
2022/11/14 03:10:53;;;;;;;1999.90;999.90;;;1.90;99.90;;;;;;4990478;28;20807;-71
2022/11/14 03:13:21;;;;;;;1999.90;999.90;;;2.00;99.90;;;;;;4990221;28;20494;-72
2022/11/14 03:15:48;;;;;;;1999.90;999.90;;;2.10;99.90;;;;;;4990633;28;20451;-73
2022/11/14 03:18:15;;;;;;;1999.90;999.90;;;2.10;99.90;;;;;;4990690;28;20446;-70
2022/11/14 03:20:42;;;;;;;1999.90;999.90;;;2.20;99.90;;;;;;4990070;28;20459;-71
2022/11/14 03:23:09;;;;;;;1999.90;999.90;;;2.30;99.90;;;;;;4990306;28;20469;-73
2022/11/14 03:25:36;;;;;;;1999.90;999.90;;;2.40;99.90;;;;;;4990427;28;20973;-73
2022/11/14 03:28:03;;;;;;;1999.90;999.90;;;2.50;99.90;;;;;;4990110;28;20454;-74
2022/11/14 03:30:31;;;;;;;1999.90;999.90;;;2.50;99.90;;;;;;4990576;28;20450;-70
2022/11/14 03:32:58;;;;;;;1999.90;999.90;;;2.50;99.90;;;;;;4989575;28;20494;-71
2022/11/14 03:35:24;;;;;;;1999.90;999.90;;;2.50;99.90;;;;;;4990467;28;20952;-72
2022/11/14 03:37:51;;;;;;;1999.90;999.90;;;2.40;99.90;;;;;;4989985;28;20953;-70
2022/11/14 03:40:18;;;;;;;1999.90;999.90;;;2.40;99.90;;;;;;4990357;28;20967;-71
2022/11/14 03:42:45;;;;;;;1999.90;999.90;;;2.50;99.90;;;;;;4990026;28;20451;-72
2022/11/14 03:45:12;;;;;;;1999.90;999.90;;;2.50;99.90;;;;;;4990069;28;20447;-71
2022/11/14 03:47:40;;;;;;;1999.90;999.90;;;2.60;99.90;;;;;;4990699;28;20520;-70
2022/11/14 03:50:07;;;;;;;1999.90;999.90;;;2.60;99.90;;;;;;4990065;28;20446;-70
2022/11/14 03:52:34;;;;;;;1999.90;999.90;;;2.60;99.90;;;;;;4990048;28;20486;-70
2022/11/14 03:55:01;;;;;;;1999.90;999.90;;;2.60;99.90;;;;;;4989755;28;20470;-73
2022/11/14 03:57:28;;;;;;;1999.90;999.90;;;2.50;99.90;;;;;;4990394;28;20454;-71
2022/11/14 03:59:54;;;;;;;1999.90;999.90;;;2.40;99.90;;;;;;4990545;28;20454;-71
2022/11/14 04:02:21;;;;;;;1999.90;999.90;;;2.40;99.90;;;;;;4989774;28;20477;-71
2022/11/14 04:04:50;;;;;;;1999.90;999.90;;;2.30;99.90;;;;;;4990485;28;20466;-72
2022/11/14 04:07:17;;;;;;;1999.90;999.90;;;2.30;99.90;;;;;;4990042;28;21001;-70
2022/11/14 04:09:45;;;;;;;1999.90;999.90;;;2.30;99.90;;;;;;4990587;28;20454;-75
2022/11/14 04:12:12;;;;;;;1999.90;999.90;;;2.30;99.90;;;;;;4993349;28;20490;-71
2022/11/14 04:14:39;;;;;;;1999.90;999.90;;;2.40;99.90;;;;;;4994070;28;21020;-71
2022/11/14 04:17:06;;;;;;;1999.90;999.90;;;2.40;99.90;;;;;;4994289;28;20489;-75
2022/11/14 04:19:33;;;;;;;1999.90;999.90;;;2.40;99.90;;;;;;4993958;28;20455;-72
2022/11/14 04:22:01;;;;;;;1999.90;999.90;;;2.40;99.90;;;;;;4993955;28;20443;-69
2022/11/14 04:24:27;;;;;;;1999.90;999.90;;;2.40;99.90;;;;;;4993275;28;20470;-71
2022/11/14 04:26:54;;;;;;;1999.90;999.90;;;2.40;99.90;;;;;;4993980;28;21018;-74
2022/11/14 04:29:21;;;;;;;1999.90;999.90;;;2.30;99.90;;;;;;4993748;28;20829;-70
2022/11/14 04:31:48;;;;;;;1999.90;999.90;;;2.30;99.90;;;;;;4993392;28;20456;-71
2022/11/14 04:34:15;;;;;;;1999.90;999.90;;;2.40;99.90;;;;;;4993605;28;20474;-71
2022/11/14 04:36:42;;;;;;;1999.90;999.90;;;2.50;99.90;;;;;;4993035;28;20889;-70
2022/11/14 04:39:10;;;;;;;1999.90;999.90;;;2.40;99.90;;;;;;4993811;28;20454;-72
2022/11/14 04:41:37;;;;;;;1999.90;999.90;;;2.40;99.90;;;;;;4992834;28;21277;-74
2022/11/14 04:44:04;;;;;;;1999.90;999.90;;;2.30;99.90;;;;;;4993166;28;21003;-70
2022/11/14 04:46:30;;;;;;;1999.90;999.90;;;2.30;99.90;;;;;;4993043;28;21114;-70
2022/11/14 04:48:57;;;;;;;1999.90;999.90;;;2.30;99.90;;;;;;4993172;28;20973;-74
2022/11/14 04:51:24;;;;;;;1999.90;999.90;;;2.40;99.90;;;;;;4992887;28;20957;-70
2022/11/14 04:53:51;;;;;;;1999.90;999.90;;;2.40;99.90;;;;;;4992522;28;20489;-70
2022/11/14 04:56:21;;;;;;;1999.90;999.90;;;2.30;99.90;;;;;;4993232;28;20458;-71
2022/11/14 04:58:49;;;;;;;1999.90;999.90;;;2.30;99.90;;;;;;4992900;28;21016;-69
2022/11/14 05:01:15;;;;;;;1999.90;999.90;;;2.30;99.90;;;;;;4993263;28;20446;-70
2022/11/14 05:03:42;;;;;;;1999.90;999.90;;;2.30;99.90;;;;;;4992300;28;20494;-72
2022/11/14 05:06:10;;;;;;;1999.90;999.90;;;2.30;99.90;;;;;;4993286;28;20450;-70
2022/11/14 05:08:37;;;;;;;1999.90;999.90;;;2.40;99.90;;;;;;4993204;28;20450;-71
2022/11/14 05:11:03;;;;;;;1999.90;999.90;;;2.40;99.90;;;;;;4992466;28;20450;-72
2022/11/14 05:13:31;;;;;;;1999.90;999.90;;;2.40;99.90;;;;;;4992652;28;21062;-71
2022/11/14 05:15:59;;;;;;;1999.90;999.90;;;2.40;99.90;;;;;;4992348;28;20458;-71
2022/11/14 05:18:26;;;;;;;1999.90;999.90;;;2.50;99.90;;;;;;4992763;28;20447;-71
2022/11/14 05:20:53;;;;;;;1999.90;999.90;;;2.40;99.90;;;;;;4991739;28;20931;-74
2022/11/14 05:23:21;;;;;;;1999.90;999.90;;;2.50;99.90;;;;;;4992558;28;20491;-71
2022/11/14 05:25:58;;;;;;;1999.90;999.90;;;2.50;99.90;;;;;;4992476;28;20446;-72
2022/11/14 05:28:24;;;;;;;1999.90;999.90;;;2.50;99.90;;;;;;4992560;28;20461;-71
2022/11/14 05:30:52;;;;;;;1999.90;999.90;;;2.50;99.90;;;;;;4992411;28;20957;-72
2022/11/14 05:33:19;;;;;;;1999.90;999.90;;;2.40;99.90;;;;;;4992019;28;20486;-73
2022/11/14 05:35:46;;;;;;;1999.90;999.90;;;2.40;99.90;;;;;;4992406;28;20455;-75
2022/11/14 05:38:13;;;;;;;1999.90;999.90;;;2.40;99.90;;;;;;4986197;28;20455;-72
2022/11/14 05:40:39;;;;;;;1999.90;999.90;;;2.40;99.90;;;;;;4988278;28;20447;-73
2022/11/14 05:43:06;;;;;;;1999.90;999.90;;;2.40;99.90;;;;;;4991740;28;20462;-73
2022/11/14 05:45:33;;;;;;;1999.90;999.90;;;2.50;99.90;;;;;;4993030;28;20451;-71
2022/11/14 05:48:01;;;;;;;1999.90;999.90;;;2.40;99.90;;;;;;4991567;28;20903;-73
2022/11/14 05:50:28;;;;;;;1999.90;999.90;;;2.40;99.90;;;;;;4991539;28;20442;-71
2022/11/14 05:52:56;;;;;;;1999.90;999.90;;;2.30;99.90;;;;;;4990921;28;20577;-71
2022/11/14 05:55:23;;;;;;;1999.90;999.90;;;2.30;99.90;;;;;;4991036;28;20457;-73
2022/11/14 05:57:50;;;;;;;1999.90;999.90;;;2.40;99.90;;;;;;4991415;28;20443;-70
2022/11/14 06:00:17;;;;;;;1999.90;999.90;;;2.40;99.90;;;;;;4988340;28;20462;-72
2022/11/14 06:02:44;;;;;;;1999.90;999.90;;;2.40;99.90;;;;;;4986015;28;20447;-70
2022/11/14 06:05:13;;;;;;;1999.90;999.90;;;2.50;99.90;;;;;;4985196;28;20542;-72
2022/11/14 06:07:39;;;;;;;1999.90;999.90;;;2.50;99.90;;;;;;4984715;28;20454;-71
2022/11/14 06:10:07;;;;;;;1999.90;999.90;;;2.50;99.90;;;;;;4986411;28;20837;-72
2022/11/14 06:12:34;;;;;;;1999.90;999.90;;;2.50;99.90;;;;;;4984632;28;20482;-71
2022/11/14 06:15:00;;;;;;;1999.90;999.90;;;2.50;99.90;;;;;;4991399;28;20533;-70
2022/11/14 06:17:27;;;;;;;1999.90;999.90;;;2.60;99.90;;;;;;4983995;28;21237;-74
2022/11/14 06:19:54;;;;;;;1999.90;999.90;;;2.70;99.90;;;;;;4987023;28;20442;-71
2022/11/14 06:22:22;;;;;;;1999.90;999.90;;;2.80;99.90;;;;;;4988587;28;20438;-74
2022/11/14 06:24:49;;;;;;;1999.90;999.90;;;2.90;99.90;;;;;;4989239;28;20475;-70
2022/11/14 06:27:16;;;;;;;1999.90;999.90;;;2.90;99.90;;;;;;4990399;28;20451;-71
2022/11/14 06:29:42;;;;;;;1999.90;999.90;;;2.90;99.90;;;;;;4988758;28;20444;-71
2022/11/14 06:32:09;;;;;;;1999.90;999.90;;;3.10;99.90;;;;;;4988955;28;20968;-70
2022/11/14 06:34:36;;;;;;;1999.90;999.90;;;3.10;99.90;;;;;;4990232;28;20838;-71
2022/11/14 06:37:06;;;;;;;1999.90;999.90;;;3.10;99.90;;;;;;4991461;28;20454;-70
2022/11/14 06:39:37;;;;;;;1999.90;999.90;;;3.20;99.90;;;;;;4990757;28;20495;-70
2022/11/14 06:42:04;;;;;;;1999.90;999.90;;;3.30;99.90;;;;;;4991156;28;20442;-71
2022/11/14 06:44:31;;;;;;;1999.90;999.90;;;3.40;99.90;;;;;;4991248;28;20467;-67
2022/11/14 06:46:58;;;;;;;1999.90;999.90;;;3.60;99.90;;;;;;4990482;28;20446;-71
2022/11/14 06:49:24;;;;;;;1999.90;999.90;;;3.70;99.90;;;;;;4990916;28;20478;-72
2022/11/14 06:51:51;;;;;;;1999.90;999.90;;;3.90;99.90;;;;;;4989800;28;20533;-70
2022/11/14 06:54:18;;;;;;;1999.90;999.90;;;4.00;99.90;;;;;;4990332;28;20486;-72
2022/11/14 06:56:46;;;;;;;1999.90;999.90;;;4.00;99.90;;;;;;4990745;28;20461;-71
2022/11/14 06:59:13;;;;;;;1999.90;999.90;;;4.10;99.90;;;;;;4991097;28;20477;-70
2022/11/14 07:01:40;;;;;;;1999.90;999.90;;;4.10;99.90;;;;;;4990024;28;20457;-71
2022/11/14 07:04:07;;;;;;;1999.90;999.90;;;4.10;99.90;;;;;;4990484;28;21022;-71
2022/11/14 07:06:34;;;;;;;1999.90;999.90;;;4.20;99.90;;;;;;4990475;28;20450;-71
2022/11/14 07:09:00;;;;;;;1999.90;999.90;;;4.10;99.90;;;;;;4987135;28;20457;-73
2022/11/14 07:11:28;;;;;;;1999.90;999.90;;;4.00;99.90;;;;;;4990116;28;21037;-74
2022/11/14 07:13:58;;;;;;;1999.90;999.90;;;3.90;99.90;;;;;;4989790;28;20487;-72
2022/11/14 07:16:28;;;;;;;1999.90;999.90;;;3.80;99.90;;;;;;4990865;28;20450;-71
2022/11/14 07:18:55;;;;;;;1999.90;999.90;;;3.70;99.90;;;;;;4990293;28;20462;-71
2022/11/14 07:21:25;;;;;;;1999.90;999.90;;;3.70;99.90;;;;;;4989370;28;20457;-71
2022/11/14 07:23:53;;;;;;;1999.90;999.90;;;3.70;99.90;;;;;;4990363;28;20467;-72
2022/11/14 07:26:19;;;;;;;1999.90;999.90;;;3.60;99.90;;;;;;4990674;28;20445;-70
2022/11/14 07:28:46;;;;;;;1999.90;999.90;;;3.60;99.90;;;;;;4990784;28;20446;-70
2022/11/14 07:31:16;;;;;;;1999.90;999.90;;;3.60;99.90;;;;;;4990245;28;20451;-73
2022/11/14 07:33:44;;;;;;;1999.90;999.90;;;3.60;99.90;;;;;;4990586;28;20491;-72
2022/11/14 07:36:12;;;;;;;1999.90;999.90;;;3.70;99.90;;;;;;4990335;28;20826;-72
2022/11/14 07:38:40;;;;;;;1999.90;999.90;;;3.80;99.90;;;;;;4990684;28;20446;-71
2022/11/14 07:41:09;;;;;;;1999.90;999.90;;;3.80;99.90;;;;;;4989931;28;20451;-71
2022/11/14 07:43:36;;;;;;;1999.90;999.90;;;3.80;99.90;;;;;;4990178;28;20981;-72
2022/11/14 07:46:03;;;;;;;1999.90;999.90;;;3.80;99.90;;;;;;4993797;28;20450;-71
2022/11/14 07:48:32;;;;;;;1999.90;999.90;;;3.80;99.90;;;;;;4994402;28;20458;-71
2022/11/14 07:51:00;;;;;;;1999.90;999.90;;;3.90;99.90;;;;;;4994159;28;20461;-73
2022/11/14 07:53:27;;;;;;;1999.90;999.90;;;4.00;99.90;;;;;;4993613;28;20494;-70
2022/11/14 07:55:54;;;;;;;1999.90;999.90;;;3.90;99.90;;;;;;4994358;28;20520;-72
2022/11/14 07:58:20;;;;;;;1999.90;999.90;;;4.00;99.90;;;;;;4994022;28;20991;-70
2022/11/14 08:00:47;;;;;;;1999.90;999.90;;;4.10;99.90;;;;;;4994100;28;20480;-74
2022/11/14 08:03:14;;;;;;;1999.90;999.90;;;4.10;99.90;;;;;;4993667;28;20463;-71
2022/11/14 08:05:42;;;;;;;1999.90;999.90;;;4.20;99.90;;;;;;4994326;28;20828;-69
2022/11/14 08:08:09;;;;;;;1999.90;999.90;;;4.30;99.90;;;;;;4993981;28;20451;-72
2022/11/14 08:10:36;;;;;;;1999.90;999.90;;;4.40;99.90;;;;;;4994004;28;20455;-72
2022/11/14 08:13:05;;;;;;;1999.90;999.90;;;4.50;99.90;;;;;;4993697;28;20490;-73
2022/11/14 08:15:32;;;;;;;1999.90;999.90;;;4.70;99.90;;;;;;4993628;28;20435;-70
2022/11/14 08:17:59;;;;;;;1999.90;999.90;;;4.90;99.90;;;;;;4994126;28;20457;-73
2022/11/14 08:20:27;;;;;;;1999.90;999.90;;;4.90;99.90;;;;;;4993856;28;20450;-71
2022/11/14 08:23:01;;;;;;;1999.90;999.90;;;4.80;99.90;;;;;;4993784;28;20453;-71
2022/11/14 08:25:28;;;;;;;1999.90;999.90;;;4.70;99.90;;;;;;4993749;28;20453;-71
2022/11/14 08:27:57;;;;;;;1999.90;999.90;;;4.70;99.90;;;;;;4993716;28;20508;-73
2022/11/14 08:30:27;;;;;;;1999.90;999.90;;;4.70;99.90;;;;;;4993799;28;20446;-71
2022/11/14 08:32:54;;;;;;;1999.90;999.90;;;4.80;99.90;;;;;;4993709;28;20455;-73
2022/11/14 08:35:22;;;;;;;1999.90;999.90;;;4.90;99.90;;;;;;4993712;28;20453;-74
2022/11/14 08:37:49;;;;;;;1999.90;999.90;;;4.90;99.90;;;;;;4993823;28;20469;-73
2022/11/14 08:40:17;;;;;;;1999.90;999.90;;;4.80;99.90;;;;;;4993897;28;20453;-73
2022/11/14 08:42:44;;;;;;;1999.90;999.90;;;4.90;99.90;;;;;;4992958;28;20449;-73
2022/11/14 08:45:11;;;;;;;1999.90;999.90;;;5.00;99.90;;;;;;4993722;28;21039;-75
2022/11/14 08:47:38;;;;;;;1999.90;999.90;;;5.10;99.90;;;;;;4993221;28;20953;-73
2022/11/14 08:50:05;;;;;;;1999.90;999.90;;;5.10;99.90;;;;;;4993563;28;20455;-71
2022/11/14 08:52:32;;;;;;;1999.90;999.90;;;5.10;99.90;;;;;;4992807;28;20477;-73
2022/11/14 08:54:59;;;;;;;1999.90;999.90;;;5.00;99.90;;;;;;4993002;28;20993;-72
2022/11/14 08:57:27;;;;;;;1999.90;999.90;;;5.10;99.90;;;;;;4992031;28;20505;-73
2022/11/14 08:59:54;;;;;;;1999.90;999.90;;;5.20;99.90;;;;;;4994223;28;20962;-73
2022/11/14 09:02:21;;;;;;;1999.90;999.90;;;5.30;99.90;;;;;;4992190;28;20455;-72
2022/11/14 09:04:48;;;;;;;1999.90;999.90;;;5.40;99.90;;;;;;4992774;28;20466;-73
2022/11/14 09:07:15;;;;;;;1999.90;999.90;;;5.50;99.90;;;;;;4993151;28;20447;-73
2022/11/14 09:09:42;;;;;;;1999.90;999.90;;;5.60;99.90;;;;;;4992792;28;20453;-73
2022/11/14 09:12:08;;;;;;;1999.90;999.90;;;5.70;99.90;;;;;;4993317;28;20446;-73
2022/11/14 09:14:36;;;;;;;1999.90;999.90;;;5.80;99.90;;;;;;4992833;28;20490;-72
2022/11/14 09:17:03;;;;;;;1999.90;999.90;;;5.90;99.90;;;;;;4992895;28;20545;-73
2022/11/14 09:19:30;;;;;;;1999.90;999.90;;;6.00;99.90;;;;;;4992349;28;20454;-74
2022/11/14 09:21:57;;;;;;;1999.90;999.90;;;6.20;99.90;;;;;;4992667;28;20454;-74
2022/11/14 09:24:24;;;;;;;1999.90;999.90;;;6.30;99.90;;;;;;4992255;28;20852;-75
2022/11/14 09:26:51;;;;;;;1999.90;999.90;;;6.40;99.90;;;;;;4992916;28;20537;-73
2022/11/14 09:29:18;;;;;;;1999.90;999.90;;;6.40;99.90;;;;;;4992728;28;20458;-73
2022/11/14 09:31:46;;;;;;;1999.90;999.90;;;6.50;99.90;;;;;;4992095;28;20446;-73
2022/11/14 09:34:13;;;;;;;1999.90;999.90;;;6.60;99.90;;;;;;4992913;28;20490;-72
2022/11/14 09:36:40;;;;;;;1999.90;999.90;;;6.80;99.90;;;;;;4992276;28;20458;-72
2022/11/14 09:39:07;;;;;;;1999.90;999.90;;;7.10;99.90;;;;;;4992996;28;20442;-73
2022/11/14 09:41:46;;;;;;;1999.90;999.90;;;7.30;99.90;;;;;;4991818;28;21042;-72
2022/11/14 09:44:37;;;;;;;1999.90;999.90;;;7.50;99.90;;;;;;4992802;28;20478;-70
2022/11/14 09:47:11;;;;;;;1999.90;999.90;;;7.70;99.90;;;;;;4992060;28;20447;-71
2022/11/14 09:49:40;;;;;;;1999.90;999.90;;;7.90;99.90;;;;;;4993739;28;20462;-70
2022/11/14 09:52:23;;;;;;;1999.90;999.90;;;8.10;99.90;;;;;;4992077;28;20474;-71
2022/11/14 09:55:02;;;;;;;1999.90;999.90;;;8.10;99.90;;;;;;4992278;28;20487;-71
2022/11/14 09:57:29;;;;;;;1999.90;999.90;;;8.20;99.90;;;;;;4992268;28;20501;-70
2022/11/14 09:59:58;;;;;;;1999.90;999.90;;;8.20;99.90;;;;;;4994746;28;20449;-70
2022/11/14 10:02:47;;;;;;;1999.90;999.90;;;8.30;99.90;;;;;;4991986;28;20462;-70
2022/11/14 10:05:28;;;;;;;1999.90;999.90;;;8.40;99.90;;;;;;4992261;28;20455;-73
2022/11/14 10:08:41;;;;;;;1999.90;999.90;;;8.50;99.90;;;;;;4991785;28;20457;-73
2022/11/14 10:11:13;;;;;;;1999.90;999.90;;;8.60;99.90;;;;;;4981367;28;20463;-71
2022/11/14 10:14:11;;;;;;;1999.90;999.90;;;8.70;99.90;;;;;;4991556;28;20491;-72
2022/11/14 10:16:47;;;;;;;1999.90;999.90;;;8.80;99.90;;;;;;4992125;28;20467;-71
2022/11/14 10:19:34;;;;;;;1999.90;999.90;;;8.80;99.90;;;;;;4991907;28;20478;-71
2022/11/14 10:22:19;;;;;;;1999.90;999.90;;;8.90;99.90;;;;;;4991818;28;20545;-70
2022/11/14 10:25:00;;;;;;;1999.90;999.90;;;8.90;99.90;;;;;;4991970;28;20458;-72
2022/11/14 10:27:30;;;;;;;1999.90;999.90;;;9.00;99.90;;;;;;4993282;28;20442;-70
2022/11/14 10:30:08;;;;;;;1999.90;999.90;;;9.20;99.90;;;;;;4991939;28;20945;-70
2022/11/14 10:32:52;;;;;;;1999.90;999.90;;;9.40;99.90;;;;;;4991534;28;20450;-70
2022/11/14 10:35:23;;;;;;;1999.90;999.90;;;9.60;99.90;;;;;;4991872;28;20490;-73
2022/11/14 10:38:00;;;;;;;1999.90;999.90;;;9.90;99.90;;;;;;4992445;28;20509;-72
2022/11/14 10:40:33;;;;;;;1999.90;999.90;;;10.10;99.90;;;;;;4991660;28;20446;-72
2022/11/14 10:43:07;;;;;;;1999.90;999.90;;;10.30;99.90;;;;;;4991063;28;20528;-70
2022/11/14 10:45:37;;;;;;;1999.90;999.90;;;10.50;99.90;;;;;;4991118;28;20945;-71
2022/11/14 10:48:10;;;;;;;1999.90;999.90;;;10.30;99.90;;;;;;4991126;28;20501;-70
2022/11/14 10:50:46;;;;;;;1999.90;999.90;;;10.20;99.90;;;;;;4991290;28;20447;-73
2022/11/14 10:53:23;;;;;;;1999.90;999.90;;;10.10;99.90;;;;;;4990358;28;20485;-73
2022/11/14 10:55:51;;;;;;;1999.90;999.90;;;10.10;99.90;;;;;;4991080;28;20443;-70
2022/11/14 10:58:18;;;;;;;1999.90;999.90;;;10.00;99.90;;;;;;4990834;28;20450;-71
2022/11/14 11:00:44;;;;;;;1999.90;999.90;;;9.90;99.90;;;;;;4990935;28;20449;-70
2022/11/14 11:03:11;;;;;;;1999.90;999.90;;;9.90;99.90;;;;;;4990105;28;20482;-72
2022/11/14 11:05:48;;;;;;;1999.90;999.90;;;9.80;99.90;;;;;;4990991;28;20585;-69
2022/11/14 11:14:00;;;;;;;1999.90;999.90;;;10.10;99.90;;;;;;4954925;28;20479;-74
2022/11/14 11:16:28;;;;;;;1999.90;999.90;;;10.20;99.90;;;;;;4990819;28;20457;-70
2022/11/14 11:19:14;;;;;;;1999.90;999.90;;;10.30;99.90;;;;;;4990494;28;20447;-70
2022/11/14 11:21:49;;;;;;;1999.90;999.90;;;10.50;99.90;;;;;;4990977;28;20447;-68
2022/11/14 11:24:30;;;;;;;1999.90;999.90;;;10.70;99.90;;;;;;4991161;28;20948;-73
2022/11/14 11:27:14;;;;;;;1999.90;999.90;;;10.90;99.90;;;;;;4991042;28;21014;-70
2022/11/14 11:29:41;;;;;;;1999.90;999.90;;;11.00;99.90;;;;;;4990973;28;20820;-70
2022/11/14 11:32:08;;;;;;;1999.90;999.90;;;11.10;99.90;;;;;;4990339;28;20455;-71
2022/11/14 11:34:35;;;;;;;1999.90;999.90;;;11.30;99.90;;;;;;4990974;28;20490;-70
2022/11/14 11:37:13;;;;;;;1999.90;999.90;;;11.30;99.90;;;;;;4990306;28;20453;-72
2022/11/14 11:39:44;;;;;;;1999.90;999.90;;;11.40;99.90;;;;;;4990543;28;20899;-70
2022/11/14 11:42:18;;;;;;;1999.90;999.90;;;11.40;99.90;;;;;;4989875;28;20451;-71
2022/11/14 11:44:49;;;;;;;1999.90;999.90;;;11.30;99.90;;;;;;4990608;28;20977;-71
2022/11/14 11:47:18;;;;;;;1999.90;999.90;;;11.20;99.90;;;;;;4991007;28;20454;-70
2022/11/14 11:49:47;;;;;;;1999.90;999.90;;;11.30;99.90;;;;;;4990601;28;20811;-72
2022/11/14 11:52:23;;;;;;;1999.90;999.90;;;11.20;99.90;;;;;;4989821;28;20838;-72
2022/11/14 11:54:58;;;;;;;1999.90;999.90;;;11.30;99.90;;;;;;4990550;28;20490;-70
2022/11/14 11:57:39;;;;;;;1999.90;999.90;;;11.30;99.90;;;;;;4990816;28;20450;-72
2022/11/14 12:00:14;;;;;;;1999.90;999.90;;;11.30;99.90;;;;;;4990259;28;20454;-71
2022/11/14 12:02:44;;;;;;;1999.90;999.90;;;11.40;99.90;;;;;;4989929;28;20454;-70
2022/11/14 12:05:15;;;;;;;1999.90;999.90;;;11.30;99.90;;;;;;4990169;28;20470;-70
2022/11/14 12:07:50;;;;;;;1999.90;999.90;;;11.30;99.90;;;;;;4990520;28;20964;-72
2022/11/14 12:10:21;;;;;;;1999.90;999.90;;;11.40;99.90;;;;;;4989655;28;20862;-71
2022/11/14 12:13:23;;;;;;;1999.90;999.90;;;11.40;99.90;;;;;;4989920;28;20464;-70
2022/11/14 12:16:06;;;;;;;1999.90;999.90;;;11.30;99.90;;;;;;4951907;28;21062;-70
2022/11/14 12:19:06;;;;;;;1999.90;999.90;;;11.20;99.90;;;;;;4990399;28;21068;-71
2022/11/14 12:22:03;;;;;;;1999.90;999.90;;;11.20;99.90;;;;;;4986584;28;20455;-71